Latest Weather Observations for Tocal

IDN60801

Issued at 9:34 pm EDT Friday 30 January 2015 (issued every 30 minutes, with the page automatically refreshed every 10 minutes)

About weather observations | Map of weather stations | Latest weather observations for NSW | Other Formats
Station Details ID: 061250 Name: TOCAL AWS Lat: -32.63 Lon: 151.59 Height: 30.0 m
Data from the previous 72 hours. | See also: Recent months at Tocal
Date/Time
EDT
Temp
°C
App
Temp
°C
Dew
Point
Rel
Hum
%
Delta-T
°C
Wind Press
QNH
hPa
Press
MSL
hPa
Rain
since 9 am
mm
Dir
 
Spd
km/h
Gust
km/h
Spd
kts
Gust
kts
30/09:30pm 19.0 20.2 13.8 72 3.0 CALM 0 0 0 0 - - 0.0
30/09:00pm 19.7 20.5 13.8 69 3.4 SW 2 7 1 4 - - 0.0
30/08:30pm 20.4 20.5 13.8 66 3.8 SSW 6 7 3 4 - - 0.0
30/08:00pm 21.4 21.2 13.0 58 4.8 SSE 6 9 3 5 - - 0.0
30/07:30pm 22.1 21.3 13.0 56 5.2 SE 9 13 5 7 - - 0.0
30/07:00pm 23.3 21.8 12.0 49 6.4 SSE 11 19 6 10 - - 0.0
30/06:30pm 23.7 21.3 11.4 46 6.9 SE 15 26 8 14 - - 0.0
30/06:00pm 24.7 22.3 12.8 47 6.9 S 17 26 9 14 - - 0.0
30/05:30pm 26.4 23.6 8.5 32 9.7 W 13 26 7 14 - - 0.0
30/05:00pm 26.8 23.9 9.6 34 9.5 WSW 15 24 8 13 - - 0.0
30/04:30pm 26.6 23.8 10.1 35 9.2 WNW 15 28 8 15 - - 0.0
30/04:00pm 26.1 22.1 9.1 34 9.3 W 20 28 11 15 - - 0.0
30/03:30pm 26.1 22.5 9.8 35 9.0 W 19 33 10 18 - - 0.0
30/03:00pm 25.5 22.9 10.7 39 8.3 W 15 24 8 13 - - 0.0
30/02:30pm 25.3 22.6 10.4 39 8.3 W 15 24 8 13 - - 0.0
30/02:00pm 24.6 21.4 10.1 40 8.0 W 17 39 9 21 - - 0.0
30/01:30pm 24.3 22.0 10.6 42 7.6 WSW 13 20 7 11 - - 0.0
30/01:00pm 23.8 20.9 9.7 40 7.7 WNW 15 22 8 12 - - 0.0
30/12:30pm 23.0 19.6 9.3 41 7.4 SW 17 28 9 15 - - 0.0
30/12:00pm 22.3 19.5 8.5 41 7.3 NW 13 22 7 12 - - 0.0
30/11:30am 22.3 19.9 10.2 46 6.6 WNW 13 19 7 10 - - 0.0
30/11:00am 22.0 20.0 11.6 51 5.8 W 13 22 7 12 - - 0.0
30/10:30am 20.7 17.4 9.7 49 5.9 WSW 17 26 9 14 - - 0.0
30/10:00am 20.1 17.1 9.4 50 5.7 WSW 15 26 8 14 - - 0.0
30/09:30am 19.9 18.1 9.6 51 5.5 WSW 9 15 5 8 - - 0.0
30/09:00am 19.0 17.1 10.5 58 4.6 WNW 11 19 6 10 - - 0.0
30/08:30am 16.8 16.7 13.8 82 1.7 NE 7 9 4 5 - - 0.0
30/08:00am 14.9 14.7 13.1 89 1.0 N 6 7 3 4 - - 0.0
30/07:30am 13.4 13.0 12.3 93 0.6 N 6 6 3 3 - - 0.0
30/07:00am 12.4 12.5 11.5 94 0.5 N 2 6 1 3 - - 0.0
30/06:30am 12.0 11.6 11.2 95 0.4 N 4 7 2 4 - - 0.0
30/06:00am 12.1 11.3 11.0 93 0.6 N 6 9 3 5 - - 0.0
30/05:30am 12.2 12.6 11.4 95 0.4 CALM 0 0 0 0 - - 0.0
30/05:00am 12.4 11.7 11.3 93 0.6 WNW 6 7 3 4 - - 0.0
30/04:30am 12.5 12.9 11.4 93 0.6 CALM 0 0 0 0 - - 0.0
30/04:00am 12.6 13.1 11.5 93 0.6 CALM 0 0 0 0 - - 0.0
30/03:30am 13.0 13.5 11.5 91 0.8 CALM 0 0 0 0 - - 0.0
30/03:00am 13.0 13.6 11.9 93 0.6 CALM 0 0 0 0 - - 0.0
30/02:30am 13.4 14.1 12.1 92 0.7 CALM 0 4 0 2 - - 0.0
30/02:00am 13.7 14.4 12.2 91 0.8 CALM 0 0 0 0 - - 0.0
30/01:30am 13.9 14.0 12.6 92 0.7 N 4 7 2 4 - - 0.0
30/01:00am 13.8 13.2 12.3 91 0.8 NNW 7 7 4 4 - - 0.0
30/12:30am 13.8 13.4 12.5 92 0.7 NW 6 7 3 4 - - 0.0
30/12:00am 14.3 14.4 12.7 90 0.9 WNW 4 7 2 4 - - 0.0
 
Date/Time
EDT
Temp
°C
App
Temp
°C
Dew
Point
Rel
Hum
%
Delta-T
°C
Wind Press
QNH
hPa
Press
MSL
hPa
Rain
since 9 am
mm
Dir
 
Spd
km/h
Gust
km/h
Spd
kts
Gust
kts
29/11:30pm 14.8 14.6 13.0 89 1.0 NW 6 7 3 4 - - 0.0
29/11:00pm 15.0 14.5 12.8 87 1.2 NW 7 9 4 5 - - 0.0
29/10:30pm 15.5 15.0 12.8 84 1.5 NW 7 9 4 5 - - 0.0
29/10:00pm 16.1 15.9 12.9 81 1.8 NW 6 9 3 5 - - 0.0
29/09:30pm 17.2 16.7 12.5 74 2.6 NW 7 9 4 5 - - 0.0
29/09:00pm 17.9 18.7 12.7 71 2.9 CALM 0 2 0 1 - - 0.0
29/08:30pm 18.7 18.1 12.2 66 3.6 S 7 11 4 6 - - 0.0
29/08:00pm 19.5 18.7 11.7 60 4.3 SSE 7 11 4 6 - - 0.0
29/07:30pm 20.4 18.9 12.0 58 4.7 SSE 11 19 6 10 - - 0.0
29/07:00pm 21.1 19.1 11.4 54 5.4 SE 13 20 7 11 - - 0.0
29/06:30pm 21.7 19.4 11.7 53 5.6 SE 15 26 8 14 - - 0.0
29/06:00pm 22.1 19.7 11.3 50 6.0 SSE 15 26 8 14 - - 0.0
29/05:30pm 22.4 19.6 11.5 50 6.1 SE 17 28 9 15 - - 0.0
29/05:00pm 23.0 20.0 10.7 45 6.8 S 17 26 9 14 - - 0.0
29/04:30pm 23.4 20.4 10.8 45 7.0 SSE 17 24 9 13 - - 0.0
29/04:00pm 23.7 21.3 11.4 46 6.9 SSE 15 24 8 13 - - 0.0
29/03:30pm 24.7 20.8 8.5 35 8.7 SW 19 30 10 16 - - 0.0
29/03:00pm 24.5 20.3 7.6 34 8.9 SSW 19 32 10 17 - - 0.0
29/02:30pm 24.0 20.1 8.5 37 8.3 SW 19 32 10 17 - - 0.0
29/02:00pm 23.6 19.4 8.4 37 8.1 SSW 20 35 11 19 - - 0.0
29/01:30pm 22.9 19.0 9.4 42 7.3 WSW 20 30 11 16 - - 0.0
29/01:00pm 22.4 19.0 10.4 46 6.6 SW 19 30 10 16 - - 0.0
29/12:30pm 21.4 18.8 10.6 50 5.9 SW 15 26 8 14 - - 0.0
29/12:00pm 22.0 20.3 12.5 54 5.4 W 13 20 7 11 - - 0.0
29/11:30am 20.8 18.8 11.4 55 5.2 SW 13 17 7 9 - - 0.0
29/11:00am 21.1 17.8 10.9 52 5.6 SW 19 32 10 17 - - 0.0
29/10:30am 20.8 18.8 11.6 55 5.1 SW 13 26 7 14 - - 0.0
29/10:00am 19.6 17.0 10.8 56 4.8 WSW 15 26 8 14 - - 0.0
29/09:30am 19.1 15.8 11.0 59 4.4 SW 19 28 10 15 - - 0.0
29/09:00am 18.8 16.5 11.7 63 3.9 WSW 15 24 8 13 - - 7.2
29/08:30am 17.9 16.1 12.1 69 3.2 WSW 13 19 7 10 - - 7.2
29/08:00am 17.2 15.6 11.5 69 3.1 W 11 17 6 9 - - 7.2
29/07:30am 16.5 14.8 12.3 76 2.3 WSW 13 20 7 11 - - 7.2
29/07:00am 16.1 15.1 12.3 78 2.1 W 9 17 5 9 - - 7.2
29/06:30am 15.9 14.9 12.4 80 1.9 W 9 15 5 8 - - 7.2
29/06:00am 15.9 14.6 12.4 80 1.9 W 11 17 6 9 - - 7.2
29/05:30am 16.1 14.4 12.5 79 2.0 W 13 17 7 9 - - 7.2
29/05:00am 16.2 15.3 12.6 79 2.0 W 9 13 5 7 - - 7.2
29/04:30am 16.4 15.6 13.0 80 1.9 WSW 9 15 5 8 - - 7.2
29/04:00am 16.6 15.5 13.0 79 2.0 WSW 11 15 6 8 - - 7.2
29/03:30am 16.7 15.3 13.3 80 1.9 WSW 13 20 7 11 - - 7.2
29/03:00am 16.8 15.9 13.6 81 1.8 WSW 11 17 6 9 - - 7.2
29/02:30am 16.8 16.4 14.2 85 1.5 W 9 13 5 7 - - 7.2
29/02:00am 16.7 16.4 14.4 86 1.3 W 9 13 5 7 - - 7.2
29/01:30am 16.9 18.2 15.2 90 1.0 W 2 7 1 4 - - 7.2
29/01:00am 17.0 17.6 15.3 90 1.0 NW 6 9 3 5 - - 7.2
29/12:30am 16.9 17.5 15.4 91 0.9 NNW 6 7 3 4 - - 7.2
29/12:00am 16.8 18.2 15.3 91 0.9 N 2 6 1 3 - - 7.2
 
Date/Time
EDT
Temp
°C
App
Temp
°C
Dew
Point
Rel
Hum
%
Delta-T
°C
Wind Press
QNH
hPa
Press
MSL
hPa
Rain
since 9 am
mm
Dir
 
Spd
km/h
Gust
km/h
Spd
kts
Gust
kts
28/11:30pm 16.5 17.1 15.3 93 0.7 NE 6 7 3 4 - - 7.2
28/11:00pm 16.5 17.8 15.1 91 0.8 W 2 6 1 3 - - 7.2
28/10:30pm 16.6 17.9 15.2 91 0.8 WNW 2 7 1 4 - - 7.2
28/10:00pm 16.7 16.6 15.0 90 1.0 SW 9 11 5 6 - - 7.2
28/09:30pm 17.0 15.1 15.3 90 1.0 SW 19 30 10 16 - - 7.2
28/09:00pm 17.2 17.7 15.5 90 1.0 WSW 7 11 4 6 - - 7.2
28/08:30pm 17.5 17.3 15.6 89 1.1 SW 11 17 6 9 - - 7.2
28/08:00pm 18.5 18.5 15.1 80 2.0 WSW 9 13 5 7 - - 6.4
28/07:30pm 18.3 18.8 15.6 84 1.6 WSW 7 13 4 7 - - 6.4
28/07:00pm 19.1 18.1 14.6 75 2.6 SW 13 19 7 10 - - 6.2
28/06:30pm 19.4 17.1 14.0 71 3.1 SSW 19 28 10 15 - - 6.2
28/06:00pm 21.2 19.1 13.6 62 4.4 SSW 17 24 9 13 - - 6.2
28/05:30pm 21.4 20.3 14.4 64 4.1 SSW 13 20 7 11 - - 6.2
28/05:00pm 21.6 20.0 13.8 61 4.5 S 15 22 8 12 - - 6.2
28/04:30pm 22.2 20.6 12.7 55 5.4 S 13 19 7 10 - - 6.2
28/04:00pm 22.4 20.0 11.5 50 6.1 SSE 15 28 8 15 - - 6.2
28/03:30pm 22.6 20.2 11.3 48 6.3 S 15 28 8 15 - - 6.2
28/03:00pm 21.7 19.7 12.7 56 5.1 S 15 20 8 11 - - 6.2
28/02:30pm 22.0 20.1 12.9 56 5.2 S 15 32 8 17 - - 6.2
28/02:00pm 21.9 19.2 12.8 56 5.2 SSE 19 32 10 17 - - 6.2
28/01:30pm 21.6 21.8 16.7 73 3.0 SSW 11 19 6 10 - - 6.2
28/01:00pm 20.5 20.2 16.5 78 2.4 SSW 13 20 7 11 - - 6.2
28/12:30pm 19.6 19.6 17.3 86 1.4 SW 13 20 7 11 - - 6.2
28/12:00pm 19.6 20.4 18.1 91 0.9 SSW 11 15 6 8 - - 6.2
28/11:30am 18.7 20.3 17.9 95 0.5 S 6 9 3 5 - - 6.2
28/11:00am 17.6 18.4 17.3 98 0.2 S 9 13 5 7 - - 5.2
28/10:30am 18.0 18.6 17.7 98 0.2 S 11 17 6 9 - - 2.8
28/10:00am 18.4 21.0 17.6 95 0.5 CALM 0 7 0 4 - - 0.2
28/09:30am 18.3 20.0 18.0 98 0.2 W 6 9 3 5 - - 0.2
28/09:00am 17.7 18.6 17.5 99 0.1 WSW 9 11 5 6 - - 38.8
28/08:30am 17.7 19.0 17.5 99 0.1 SW 7 9 4 5 - - 38.4
28/08:00am 17.6 18.8 17.4 99 0.1 SSW 7 9 4 5 - - 38.0
28/07:30am 17.8 18.3 17.5 98 0.2 SSW 11 19 6 10 - - 37.2
28/07:00am 18.0 19.0 17.7 98 0.2 SSW 9 15 5 8 - - 35.2
28/06:30am 17.7 20.4 17.7 100 0.0 CALM 0 9 0 5 - - 35.0
28/06:00am 17.5 20.1 17.5 100 0.0 CALM 0 0 0 0 - - 35.0
28/05:30am 17.5 19.7 17.5 100 0.0 N 2 7 1 4 - - 35.0
28/05:00am 17.6 20.2 17.6 100 0.0 CALM 0 0 0 0 - - 35.0
28/04:30am 17.7 19.9 17.5 99 0.1 WNW 2 7 1 4 - - 35.0
28/04:00am 17.7 20.3 17.5 99 0.1 CALM 0 0 0 0 - - 34.8
28/03:30am 17.7 19.6 17.7 100 0.0 NNW 4 6 2 3 - - 34.4
28/03:00am 17.8 20.4 17.6 99 0.1 CALM 0 0 0 0 - - 34.4
28/02:30am 17.8 20.4 17.6 99 0.1 CALM 0 0 0 0 - - 34.4
28/02:00am 17.7 19.0 17.5 99 0.1 SW 7 7 4 4 - - 34.4
28/01:30am 17.8 19.3 17.6 99 0.1 W 6 7 3 4 - - 34.4
28/01:00am 17.7 19.2 17.5 99 0.1 SSE 6 7 3 4 - - 34.4
28/12:30am 17.7 19.9 17.5 99 0.1 E 2 7 1 4 - - 34.4
28/12:00am 17.9 19.8 17.6 98 0.2 SW 4 9 2 5 - - 34.4
 
Date/Time
EDT
Temp
°C
App
Temp
°C
Dew
Point
Rel
Hum
%
Delta-T
°C
Wind Press
QNH
hPa
Press
MSL
hPa
Rain
since 9 am
mm
Dir
 
Spd
km/h
Gust
km/h
Spd
kts
Gust
kts
27/11:30pm 17.9 20.2 17.6 98 0.2 SW 2 7 1 4 - - 34.4
27/11:00pm 17.9 19.1 17.4 97 0.3 SW 7 13 4 7 - - 34.4
27/10:30pm 17.6 18.4 17.3 98 0.2 SE 9 13 5 7 - - 34.4
27/10:00pm 17.8 19.3 17.5 98 0.2 S 6 9 3 5 - - 34.4

Other Formats:

Comma delimited format used in spreadsheet applications
http://www.bom.gov.au/fwo/IDN60801/IDN60801.94775.axf

JavaScript Object Notation format (JSON) in row-major order
http://www.bom.gov.au/fwo/IDN60801/IDN60801.94775.json